sensor_id;sensor_type;location;lat;lon;timestamp;pressure;altitude;pressure_sealevel;temperature;humidity
70434;BME280;57876;47.792;12.960;2023-11-21T00:02:05;96295.88;;;19.53;52.29
70434;BME280;57876;47.792;12.960;2023-11-21T00:04:30;96302.09;;;19.50;52.26
70434;BME280;57876;47.792;12.960;2023-11-21T00:06:54;96304.00;;;19.49;52.46
70434;BME280;57876;47.792;12.960;2023-11-21T00:09:19;96303.31;;;19.52;52.35
70434;BME280;57876;47.792;12.960;2023-11-21T00:11:44;96305.25;;;19.52;52.32
70434;BME280;57876;47.792;12.960;2023-11-21T00:14:08;96300.91;;;19.51;52.27
70434;BME280;57876;47.792;12.960;2023-11-21T00:16:33;96298.53;;;19.49;52.51
70434;BME280;57876;47.792;12.960;2023-11-21T00:18:58;96292.25;;;19.49;52.20
70434;BME280;57876;47.792;12.960;2023-11-21T00:21:22;96295.34;;;19.47;52.31
70434;BME280;57876;47.792;12.960;2023-11-21T00:23:46;96302.41;;;19.48;52.26
70434;BME280;57876;47.792;12.960;2023-11-21T00:26:11;96300.06;;;19.47;52.24
70434;BME280;57876;47.792;12.960;2023-11-21T00:28:35;96300.84;;;19.47;52.35
70434;BME280;57876;47.792;12.960;2023-11-21T00:31:00;96294.56;;;19.47;52.75
70434;BME280;57876;47.792;12.960;2023-11-21T00:33:24;96300.06;;;19.47;52.29
70434;BME280;57876;47.792;12.960;2023-11-21T00:35:49;96289.44;;;19.45;52.28
70434;BME280;57876;47.792;12.960;2023-11-21T00:38:13;96288.97;;;19.43;52.46
70434;BME280;57876;47.792;12.960;2023-11-21T00:40:38;96283.50;;;19.43;52.38
70434;BME280;57876;47.792;12.960;2023-11-21T00:43:02;96297.91;;;19.40;52.42
70434;BME280;57876;47.792;12.960;2023-11-21T00:45:26;96295.16;;;19.40;52.41
70434;BME280;57876;47.792;12.960;2023-11-21T00:47:51;96305.81;;;19.42;52.56
70434;BME280;57876;47.792;12.960;2023-11-21T00:50:15;96297.91;;;19.40;52.40
70434;BME280;57876;47.792;12.960;2023-11-21T00:52:40;96300.66;;;19.40;52.13
70434;BME280;57876;47.792;12.960;2023-11-21T00:55:05;96303.41;;;19.40;52.51
70434;BME280;57876;47.792;12.960;2023-11-21T00:57:31;96300.22;;;19.38;52.50
70434;BME280;57876;47.792;12.960;2023-11-21T00:59:55;96291.19;;;19.38;52.52
70434;BME280;57876;47.792;12.960;2023-11-21T01:02:20;96297.47;;;19.38;52.83
70434;BME280;57876;47.792;12.960;2023-11-21T01:04:44;96290.03;;;19.39;52.46
70434;BME280;57876;47.792;12.960;2023-11-21T01:07:08;96289.69;;;19.40;52.34
70434;BME280;57876;47.792;12.960;2023-11-21T01:09:33;96288.53;;;19.41;52.27
70434;BME280;57876;47.792;12.960;2023-11-21T01:11:57;96287.41;;;19.42;52.37
70434;BME280;57876;47.792;12.960;2023-11-21T01:14:24;96290.59;;;19.44;52.34
70434;BME280;57876;47.792;12.960;2023-11-21T01:16:50;96288.63;;;19.45;52.40
70434;BME280;57876;47.792;12.960;2023-11-21T01:19:14;96285.09;;;19.44;52.44
70434;BME280;57876;47.792;12.960;2023-11-21T01:21:39;96280.41;;;19.45;52.33
70434;BME280;57876;47.792;12.960;2023-11-21T01:24:04;96282.78;;;19.46;52.29
70434;BME280;57876;47.792;12.960;2023-11-21T01:26:31;96279.25;;;19.46;52.37
70434;BME280;57876;47.792;12.960;2023-11-21T01:28:55;96280.03;;;19.46;52.52
70434;BME280;57876;47.792;12.960;2023-11-21T01:31:20;96283.94;;;19.45;52.58
70434;BME280;57876;47.792;12.960;2023-11-21T01:33:44;96286.69;;;19.45;52.61
70434;BME280;57876;47.792;12.960;2023-11-21T01:36:09;96284.28;;;19.44;52.44
70434;BME280;57876;47.792;12.960;2023-11-21T01:38:34;96285.09;;;19.44;52.83
70434;BME280;57876;47.792;12.960;2023-11-21T01:40:59;96283.16;;;19.45;52.34
70434;BME280;57876;47.792;12.960;2023-11-21T01:43:24;96286.22;;;19.43;52.17
70434;BME280;57876;47.792;12.960;2023-11-21T01:45:49;96285.78;;;19.41;52.31
70434;BME280;57876;47.792;12.960;2023-11-21T01:48:14;96296.41;;;19.43;52.33
70434;BME280;57876;47.792;12.960;2023-11-21T01:50:38;96288.09;;;19.39;52.47
70434;BME280;57876;47.792;12.960;2023-11-21T01:53:03;96291.28;;;19.41;52.31
70434;BME280;57876;47.792;12.960;2023-11-21T01:55:28;96296.75;;;19.41;52.24
70434;BME280;57876;47.792;12.960;2023-11-21T01:57:55;96289.69;;;19.40;52.44
70434;BME280;57876;47.792;12.960;2023-11-21T02:00:20;96289.25;;;19.38;52.27
70434;BME280;57876;47.792;12.960;2023-11-21T02:02:45;96285.72;;;19.38;52.48
70434;BME280;57876;47.792;12.960;2023-11-21T02:05:11;96282.97;;;19.38;52.65
70434;BME280;57876;47.792;12.960;2023-11-21T02:07:40;96284.91;;;19.37;52.25
70434;BME280;57876;47.792;12.960;2023-11-21T02:10:05;96277.81;;;19.36;52.54
70434;BME280;57876;47.792;12.960;2023-11-21T02:12:30;96272.34;;;19.36;52.70
70434;BME280;57876;47.792;12.960;2023-11-21T02:14:54;96263.69;;;19.34;52.47
70434;BME280;57876;47.792;12.960;2023-11-21T02:17:19;96270.75;;;19.35;52.59
70434;BME280;57876;47.792;12.960;2023-11-21T02:19:44;96262.19;;;19.36;52.70
70434;BME280;57876;47.792;12.960;2023-11-21T02:22:09;96262.97;;;19.37;52.41
70434;BME280;57876;47.792;12.960;2023-11-21T02:24:35;96261.47;;;19.40;52.43
70434;BME280;57876;47.792;12.960;2023-11-21T02:26:59;96264.66;;;19.42;52.31
70434;BME280;57876;47.792;12.960;2023-11-21T02:29:24;96258.81;;;19.43;52.55
70434;BME280;57876;47.792;12.960;2023-11-21T02:31:52;96260.41;;;19.44;52.27
70434;BME280;57876;47.792;12.960;2023-11-21T02:34:18;96260.84;;;19.46;52.27
70434;BME280;57876;47.792;12.960;2023-11-21T02:36:46;96266.31;;;19.46;52.40
70434;BME280;57876;47.792;12.960;2023-11-21T02:39:13;96266.31;;;19.46;52.34
70434;BME280;57876;47.792;12.960;2023-11-21T02:41:38;96258.09;;;19.46;52.25
70434;BME280;57876;47.792;12.960;2023-11-21T02:44:03;96255.34;;;19.46;52.23
70434;BME280;57876;47.792;12.960;2023-11-21T02:46:28;96260.41;;;19.44;52.45
70434;BME280;57876;47.792;12.960;2023-11-21T02:48:52;96257.69;;;19.44;52.54
70434;BME280;57876;47.792;12.960;2023-11-21T02:51:20;96252.19;;;19.44;52.34
70434;BME280;57876;47.792;12.960;2023-11-21T02:53:44;96243.50;;;19.42;52.54
70434;BME280;57876;47.792;12.960;2023-11-21T02:56:10;96244.31;;;19.43;52.62
70434;BME280;57876;47.792;12.960;2023-11-21T02:58:35;96243.50;;;19.42;52.18
70434;BME280;57876;47.792;12.960;2023-11-21T03:00:59;96235.28;;;19.42;52.40
70434;BME280;57876;47.792;12.960;2023-11-21T03:03:23;96234.50;;;19.42;52.39
70434;BME280;57876;47.792;12.960;2023-11-21T03:05:48;96228.56;;;19.40;52.33
70434;BME280;57876;47.792;12.960;2023-11-21T03:08:13;96234.84;;;19.40;52.61
70434;BME280;57876;47.792;12.960;2023-11-21T03:10:37;96240.31;;;19.40;52.41
70434;BME280;57876;47.792;12.960;2023-11-21T03:13:01;96237.13;;;19.38;52.40
70434;BME280;57876;47.792;12.960;2023-11-21T03:15:26;96237.94;;;19.39;52.49
70434;BME280;57876;47.792;12.960;2023-11-21T03:17:50;96243.41;;;19.39;52.60
70434;BME280;57876;47.792;12.960;2023-11-21T03:20:15;96240.66;;;19.39;52.38
70434;BME280;57876;47.792;12.960;2023-11-21T03:22:40;96234.38;;;19.38;52.26
70434;BME280;57876;47.792;12.960;2023-11-21T03:25:05;96238.31;;;19.37;52.43
70434;BME280;57876;47.792;12.960;2023-11-21T03:27:30;96234.06;;;19.40;52.49
70434;BME280;57876;47.792;12.960;2023-11-21T03:29:54;96235.63;;;19.41;52.50
70434;BME280;57876;47.792;12.960;2023-11-21T03:32:19;96226.28;;;19.42;52.33
70434;BME280;57876;47.792;12.960;2023-11-21T03:34:55;96233.00;;;19.44;52.46
70434;BME280;57876;47.792;12.960;2023-11-21T03:37:20;96242.00;;;19.45;52.82
70434;BME280;57876;47.792;12.960;2023-11-21T03:39:44;96234.91;;;19.44;52.18
70434;BME280;57876;47.792;12.960;2023-11-21T03:42:09;96224.75;;;19.44;52.27
70434;BME280;57876;47.792;12.960;2023-11-21T03:44:33;96233.78;;;19.45;52.29
70434;BME280;57876;47.792;12.960;2023-11-21T03:46:58;96229.09;;;19.45;52.54
70434;BME280;57876;47.792;12.960;2023-11-21T03:49:22;96229.88;;;19.46;52.43
70434;BME280;57876;47.792;12.960;2023-11-21T03:51:47;96235.72;;;19.44;52.35
70434;BME280;57876;47.792;12.960;2023-11-21T03:54:11;96223.94;;;19.44;52.53
70434;BME280;57876;47.792;12.960;2023-11-21T03:56:35;96230.25;;;19.44;52.36
70434;BME280;57876;47.792;12.960;2023-11-21T03:59:00;96222.38;;;19.43;52.62
70434;BME280;57876;47.792;12.960;2023-11-21T04:01:24;96225.91;;;19.43;52.48
70434;BME280;57876;47.792;12.960;2023-11-21T04:03:50;96230.59;;;19.43;52.56
70434;BME280;57876;47.792;12.960;2023-11-21T04:06:14;96229.00;;;19.42;52.53
70434;BME280;57876;47.792;12.960;2023-11-21T04:08:39;96230.16;;;19.41;52.58
70434;BME280;57876;47.792;12.960;2023-11-21T04:11:03;96234.84;;;19.40;52.54
70434;BME280;57876;47.792;12.960;2023-11-21T04:13:28;96227.78;;;19.39;52.53
70434;BME280;57876;47.792;12.960;2023-11-21T04:15:52;96221.13;;;19.40;52.45
70434;BME280;57876;47.792;12.960;2023-11-21T04:18:17;96220.34;;;19.40;52.66
70434;BME280;57876;47.792;12.960;2023-11-21T04:20:41;96228.19;;;19.41;52.16
70434;BME280;57876;47.792;12.960;2023-11-21T04:23:05;96231.75;;;19.42;52.43
70434;BME280;57876;47.792;12.960;2023-11-21T04:25:30;96238.03;;;19.42;52.35
70434;BME280;57876;47.792;12.960;2023-11-21T04:27:54;96225.91;;;19.43;52.62
70434;BME280;57876;47.792;12.960;2023-11-21T04:30:19;96218.13;;;19.45;52.36
70434;BME280;57876;47.792;12.960;2023-11-21T04:32:45;96216.59;;;19.48;52.48
70434;BME280;57876;47.792;12.960;2023-11-21T04:35:09;96217.06;;;19.50;52.49
70434;BME280;57876;47.792;12.960;2023-11-21T04:37:34;96230.41;;;19.51;52.16
70434;BME280;57876;47.792;12.960;2023-11-21T04:39:58;96226.53;;;19.52;52.47
70434;BME280;57876;47.792;12.960;2023-11-21T04:42:22;96223.78;;;19.52;52.47
70434;BME280;57876;47.792;12.960;2023-11-21T04:44:47;96221.09;;;19.56;52.57
70434;BME280;57876;47.792;12.960;2023-11-21T04:47:11;96219.94;;;19.57;52.55
70434;BME280;57876;47.792;12.960;2023-11-21T04:49:36;96216.50;;;19.60;52.23
70434;BME280;57876;47.792;12.960;2023-11-21T04:52:01;96226.31;;;19.61;52.38
70434;BME280;57876;47.792;12.960;2023-11-21T04:54:25;96221.16;;;19.59;52.47
70434;BME280;57876;47.792;12.960;2023-11-21T04:56:50;96230.28;;;19.64;52.50
70434;BME280;57876;47.792;12.960;2023-11-21T04:59:14;96240.09;;;19.65;52.36
70434;BME280;57876;47.792;12.960;2023-11-21T05:01:39;96230.75;;;19.66;52.41
70434;BME280;57876;47.792;12.960;2023-11-21T05:04:03;96242.53;;;19.66;52.14
70434;BME280;57876;47.792;12.960;2023-11-21T05:06:30;96248.34;;;19.65;52.30
70434;BME280;57876;47.792;12.960;2023-11-21T05:08:54;96246.06;;;19.67;52.60
70434;BME280;57876;47.792;12.960;2023-11-21T05:11:26;96254.28;;;19.67;52.31
70434;BME280;57876;47.792;12.960;2023-11-21T05:13:51;96251.06;;;19.65;52.30
70434;BME280;57876;47.792;12.960;2023-11-21T05:16:15;96245.16;;;19.63;52.54
70434;BME280;57876;47.792;12.960;2023-11-21T05:18:40;96245.16;;;19.63;52.30
70434;BME280;57876;47.792;12.960;2023-11-21T05:21:04;96241.25;;;19.64;52.43
70434;BME280;57876;47.792;12.960;2023-11-21T05:23:29;96254.19;;;19.63;52.41
70434;BME280;57876;47.792;12.960;2023-11-21T05:25:53;96256.94;;;19.63;52.50
70434;BME280;57876;47.792;12.960;2023-11-21T05:28:17;96265.50;;;19.62;52.46
70434;BME280;57876;47.792;12.960;2023-11-21T05:30:42;96265.88;;;19.60;52.35
70434;BME280;57876;47.792;12.960;2023-11-21T05:33:06;96276.50;;;19.62;52.15
70434;BME280;57876;47.792;12.960;2023-11-21T05:35:31;96268.63;;;19.60;52.44
70434;BME280;57876;47.792;12.960;2023-11-21T05:37:55;96273.75;;;19.62;52.37
70434;BME280;57876;47.792;12.960;2023-11-21T05:40:19;96276.84;;;19.60;52.45
70434;BME280;57876;47.792;12.960;2023-11-21T05:42:46;96272.25;;;19.64;52.50
70434;BME280;57876;47.792;12.960;2023-11-21T05:45:10;96277.38;;;19.66;52.27
70434;BME280;57876;47.792;12.960;2023-11-21T05:47:45;96276.25;;;19.67;52.35
70434;BME280;57876;47.792;12.960;2023-11-21T05:50:10;96284.94;;;19.69;52.37
70434;BME280;57876;47.792;12.960;2023-11-21T05:52:45;96278.66;;;19.68;52.46
70434;BME280;57876;47.792;12.960;2023-11-21T05:55:10;96283.75;;;19.70;52.22
70434;BME280;57876;47.792;12.960;2023-11-21T05:57:38;96282.63;;;19.71;52.30
70434;BME280;57876;47.792;12.960;2023-11-21T06:00:07;96287.75;;;19.72;52.45
70434;BME280;57876;47.792;12.960;2023-11-21T06:02:49;96284.66;;;19.74;52.24
70434;BME280;57876;47.792;12.960;2023-11-21T06:05:15;96281.91;;;19.74;52.38
70434;BME280;57876;47.792;12.960;2023-11-21T06:07:40;96285.44;;;19.74;52.46
70434;BME280;57876;47.792;12.960;2023-11-21T06:10:05;96281.13;;;19.73;52.25
70434;BME280;57876;47.792;12.960;2023-11-21T06:12:33;96290.13;;;19.74;52.29
70434;BME280;57876;47.792;12.960;2023-11-21T06:14:59;96286.16;;;19.71;52.43
70434;BME280;57876;47.792;12.960;2023-11-21T06:17:24;96287.75;;;19.72;52.33
70434;BME280;57876;47.792;12.960;2023-11-21T06:19:49;96285.78;;;19.73;52.39
70434;BME280;57876;47.792;12.960;2023-11-21T06:22:13;96290.03;;;19.70;52.54
70434;BME280;57876;47.792;12.960;2023-11-21T06:24:37;96294.72;;;19.70;52.22
70434;BME280;57876;47.792;12.960;2023-11-21T06:27:04;96288.00;;;19.67;51.99
70434;BME280;57876;47.792;12.960;2023-11-21T06:29:29;96290.41;;;19.69;52.12
70434;BME280;57876;47.792;12.960;2023-11-21T06:31:53;96300.59;;;19.68;52.42
70434;BME280;57876;47.792;12.960;2023-11-21T06:34:19;96292.72;;;19.67;52.21
70434;BME280;57876;47.792;12.960;2023-11-21T06:36:44;96297.41;;;19.66;52.49
70434;BME280;57876;47.792;12.960;2023-11-21T06:39:08;96295.75;;;19.65;52.42
70434;BME280;57876;47.792;12.960;2023-11-21T06:41:34;96304.38;;;19.64;52.46
70434;BME280;57876;47.792;12.960;2023-11-21T06:43:58;96302.75;;;19.63;52.31
70434;BME280;57876;47.792;12.960;2023-11-21T06:46:23;96296.84;;;19.61;52.47
70434;BME280;57876;47.792;12.960;2023-11-21T06:48:47;96299.94;;;19.59;52.57
70434;BME280;57876;47.792;12.960;2023-11-21T06:51:13;96295.63;;;19.58;52.22
70434;BME280;57876;47.792;12.960;2023-11-21T06:53:38;96287.28;;;19.54;52.45
70434;BME280;57876;47.792;12.960;2023-11-21T06:56:03;96301.00;;;19.54;52.37
70434;BME280;57876;47.792;12.960;2023-11-21T06:58:27;96298.63;;;19.53;52.30
70434;BME280;57876;47.792;12.960;2023-11-21T07:00:51;96300.13;;;19.50;52.57
70434;BME280;57876;47.792;12.960;2023-11-21T07:03:16;96300.13;;;19.50;52.37
70434;BME280;57876;47.792;12.960;2023-11-21T07:05:43;96297.38;;;19.50;52.47
70434;BME280;57876;47.792;12.960;2023-11-21T07:08:07;96296.22;;;19.51;52.46
70434;BME280;57876;47.792;12.960;2023-11-21T07:10:31;96302.94;;;19.54;52.76
70434;BME280;57876;47.792;12.960;2023-11-21T07:12:56;96303.75;;;19.54;52.39
70434;BME280;57876;47.792;12.960;2023-11-21T07:15:21;96308.09;;;19.55;52.26
70434;BME280;57876;47.792;12.960;2023-11-21T07:17:46;96305.34;;;19.55;52.42
70434;BME280;57876;47.792;12.960;2023-11-21T07:20:12;96308.09;;;19.55;52.40
70434;BME280;57876;47.792;12.960;2023-11-21T07:22:38;96307.38;;;19.58;52.39
70434;BME280;57876;47.792;12.960;2023-11-21T07:25:02;96317.19;;;19.59;52.31
70434;BME280;57876;47.792;12.960;2023-11-21T07:27:27;96323.91;;;19.62;52.52
70434;BME280;57876;47.792;12.960;2023-11-21T07:29:52;96327.44;;;19.63;52.37
70434;BME280;57876;47.792;12.960;2023-11-21T07:32:16;96322.78;;;19.63;52.35
70434;BME280;57876;47.792;12.960;2023-11-21T07:34:41;96332.25;;;19.66;52.41
70434;BME280;57876;47.792;12.960;2023-11-21T07:37:05;96329.50;;;19.66;52.38
70434;BME280;57876;47.792;12.960;2023-11-21T07:39:30;96331.56;;;19.69;52.31
70434;BME280;57876;47.792;12.960;2023-11-21T07:41:55;96331.19;;;19.70;52.35
70434;BME280;57876;47.792;12.960;2023-11-21T07:44:19;96328.09;;;19.72;52.24
70434;BME280;57876;47.792;12.960;2023-11-21T07:46:44;96335.19;;;19.73;52.11
70434;BME280;57876;47.792;12.960;2023-11-21T07:49:08;96336.78;;;19.74;52.15
70434;BME280;57876;47.792;12.960;2023-11-21T07:51:33;96335.19;;;19.73;51.91
70434;BME280;57876;47.792;12.960;2023-11-21T07:53:57;96333.66;;;19.75;52.36
70434;BME280;57876;47.792;12.960;2023-11-21T07:56:22;96338.38;;;19.75;52.50
70434;BME280;57876;47.792;12.960;2023-11-21T07:58:46;96336.41;;;19.75;52.18
70434;BME280;57876;47.792;12.960;2023-11-21T08:01:11;96343.84;;;19.75;52.31
70434;BME280;57876;47.792;12.960;2023-11-21T08:03:36;96341.09;;;19.75;51.96
70434;BME280;57876;47.792;12.960;2023-11-21T08:06:00;96343.84;;;19.75;52.35
70434;BME280;57876;47.792;12.960;2023-11-21T08:08:27;96347.75;;;19.74;52.54
70434;BME280;57876;47.792;12.960;2023-11-21T08:10:51;96341.81;;;19.72;52.24
70434;BME280;57876;47.792;12.960;2023-11-21T08:13:26;96343.78;;;19.71;52.31
70434;BME280;57876;47.792;12.960;2023-11-21T08:15:54;96337.50;;;19.71;52.24
70434;BME280;57876;47.792;12.960;2023-11-21T08:18:18;96339.44;;;19.70;52.30
70434;BME280;57876;47.792;12.960;2023-11-21T08:20:44;96348.47;;;19.71;52.39
70434;BME280;57876;47.792;12.960;2023-11-21T08:23:11;96346.53;;;19.71;52.15
70434;BME280;57876;47.792;12.960;2023-11-21T08:25:36;96344.56;;;19.72;52.38
70434;BME280;57876;47.792;12.960;2023-11-21T08:28:01;96350.84;;;19.72;52.19
70434;BME280;57876;47.792;12.960;2023-11-21T08:30:25;96344.56;;;19.72;51.76
70434;BME280;57876;47.792;12.960;2023-11-21T08:32:53;96353.25;;;19.74;52.15
70434;BME280;57876;47.792;12.960;2023-11-21T08:35:17;96351.63;;;19.73;52.32
70434;BME280;57876;47.792;12.960;2023-11-21T08:37:42;96357.22;;;19.76;52.26
70434;BME280;57876;47.792;12.960;2023-11-21T08:40:07;96356.41;;;19.76;52.28
70434;BME280;57876;47.792;12.960;2023-11-21T08:42:36;96360.41;;;19.78;52.73
70434;BME280;57876;47.792;12.960;2023-11-21T08:45:01;96362.00;;;19.79;52.19
70434;BME280;57876;47.792;12.960;2023-11-21T08:47:26;96363.97;;;19.79;52.14
70434;BME280;57876;47.792;12.960;2023-11-21T08:49:50;96356.53;;;19.79;52.15
70434;BME280;57876;47.792;12.960;2023-11-21T08:52:17;96358.88;;;19.81;52.13
70434;BME280;57876;47.792;12.960;2023-11-21T08:54:41;96357.75;;;19.82;51.89
70434;BME280;57876;47.792;12.960;2023-11-21T08:57:05;96364.03;;;19.83;52.10
70434;BME280;57876;47.792;12.960;2023-11-21T08:59:30;96359.72;;;19.82;52.26
70434;BME280;57876;47.792;12.960;2023-11-21T09:01:54;96360.06;;;19.80;52.38
70434;BME280;57876;47.792;12.960;2023-11-21T09:04:18;96357.31;;;19.80;52.28
70434;BME280;57876;47.792;12.960;2023-11-21T09:06:43;96356.53;;;19.79;52.46
70434;BME280;57876;47.792;12.960;2023-11-21T09:09:07;96366.69;;;19.79;52.23
70434;BME280;57876;47.792;12.960;2023-11-21T09:11:36;96358.81;;;19.77;52.13
70434;BME280;57876;47.792;12.960;2023-11-21T09:14:01;96369.00;;;19.77;52.11
70434;BME280;57876;47.792;12.960;2023-11-21T09:16:26;96360.78;;;19.77;52.15
70434;BME280;57876;47.792;12.960;2023-11-21T09:18:50;96367.38;;;19.76;52.28
70434;BME280;57876;47.792;12.960;2023-11-21T09:21:14;96371.28;;;19.75;52.33
70434;BME280;57876;47.792;12.960;2023-11-21T09:23:39;96372.81;;;19.72;51.96
70434;BME280;57876;47.792;12.960;2023-11-21T09:26:03;96384.56;;;19.73;52.25
70434;BME280;57876;47.792;12.960;2023-11-21T09:28:29;96382.66;;;19.73;52.26
70434;BME280;57876;47.792;12.960;2023-11-21T09:30:53;96381.41;;;19.71;52.30
70434;BME280;57876;47.792;12.960;2023-11-21T09:33:18;96381.81;;;19.73;52.10
70434;BME280;57876;47.792;12.960;2023-11-21T09:35:42;96386.19;;;19.74;52.30
70434;BME280;57876;47.792;12.960;2023-11-21T09:38:08;96384.56;;;19.73;52.41
70434;BME280;57876;47.792;12.960;2023-11-21T09:40:35;96394.81;;;19.76;52.40
70434;BME280;57876;47.792;12.960;2023-11-21T09:42:59;96390.50;;;19.75;52.60
70434;BME280;57876;47.792;12.960;2023-11-21T09:45:28;96389.00;;;19.77;52.26
70434;BME280;57876;47.792;12.960;2023-11-21T09:47:54;96391.41;;;19.79;52.29
70434;BME280;57876;47.792;12.960;2023-11-21T09:50:22;96385.53;;;19.80;52.45
70434;BME280;57876;47.792;12.960;2023-11-21T09:55:29;96379.72;;;19.82;52.20
70434;BME280;57876;47.792;12.960;2023-11-21T09:57:56;96383.25;;;19.83;52.03
70434;BME280;57876;47.792;12.960;2023-11-21T10:00:22;96376.97;;;19.82;52.06
70434;BME280;57876;47.792;12.960;2023-11-21T10:02:53;96379.72;;;19.82;52.17
70434;BME280;57876;47.792;12.960;2023-11-21T10:05:18;96378.91;;;19.82;52.31
70434;BME280;57876;47.792;12.960;2023-11-21T10:07:44;96378.53;;;19.83;52.01
70434;BME280;57876;47.792;12.960;2023-11-21T10:10:11;96376.97;;;19.82;52.04
70434;BME280;57876;47.792;12.960;2023-11-21T10:12:36;96366.78;;;19.83;52.19
70434;BME280;57876;47.792;12.960;2023-11-21T10:15:03;96371.47;;;19.82;52.29
70434;BME280;57876;47.792;12.960;2023-11-21T10:17:31;96369.88;;;19.81;52.18
70434;BME280;57876;47.792;12.960;2023-11-21T10:20:02;96377.69;;;19.79;52.22
70434;BME280;57876;47.792;12.960;2023-11-21T10:22:28;96370.59;;;19.78;52.21
70434;BME280;57876;47.792;12.960;2023-11-21T10:24:52;96377.22;;;19.77;52.22
70434;BME280;57876;47.792;12.960;2023-11-21T10:27:17;96368.22;;;19.76;52.25
70434;BME280;57876;47.792;12.960;2023-11-21T10:29:42;96367.75;;;19.74;52.27
70434;BME280;57876;47.792;12.960;2023-11-21T10:32:07;96370.84;;;19.73;52.24
70434;BME280;57876;47.792;12.960;2023-11-21T10:34:32;96377.50;;;19.72;52.37
70434;BME280;57876;47.792;12.960;2023-11-21T10:36:57;96381.41;;;19.71;52.32
70434;BME280;57876;47.792;12.960;2023-11-21T10:39:22;96382.91;;;19.68;52.04
70434;BME280;57876;47.792;12.960;2023-11-21T10:41:48;96384.38;;;19.66;52.41
70434;BME280;57876;47.792;12.960;2023-11-21T10:44:17;96380.81;;;19.65;52.36
70434;BME280;57876;47.792;12.960;2023-11-21T10:46:45;96385.06;;;19.63;52.48
70434;BME280;57876;47.792;12.960;2023-11-21T10:49:14;96383.84;;;19.60;52.36
70434;BME280;57876;47.792;12.960;2023-11-21T10:51:43;96382.69;;;19.61;52.21
70434;BME280;57876;47.792;12.960;2023-11-21T10:54:07;96383.41;;;19.58;52.29
70434;BME280;57876;47.792;12.960;2023-11-21T10:56:32;96380.22;;;19.56;52.34
70434;BME280;57876;47.792;12.960;2023-11-21T10:58:59;96375.88;;;19.55;52.30
70434;BME280;57876;47.792;12.960;2023-11-21T11:01:26;96374.28;;;19.54;52.37
70434;BME280;57876;47.792;12.960;2023-11-21T11:03:53;96374.28;;;19.54;52.64
70434;BME280;57876;47.792;12.960;2023-11-21T11:06:18;96380.91;;;19.53;52.18
70434;BME280;57876;47.792;12.960;2023-11-21T11:08:44;96378.16;;;19.53;52.44
70434;BME280;57876;47.792;12.960;2023-11-21T11:11:09;96373.47;;;19.53;52.18
70434;BME280;57876;47.792;12.960;2023-11-21T11:13:34;96370.03;;;19.56;52.41
70434;BME280;57876;47.792;12.960;2023-11-21T11:16:01;96366.16;;;19.57;52.31
70434;BME280;57876;47.792;12.960;2023-11-21T11:18:26;96372.88;;;19.60;52.33
70434;BME280;57876;47.792;12.960;2023-11-21T11:20:51;96371.72;;;19.61;52.19
70434;BME280;57876;47.792;12.960;2023-11-21T11:23:50;96363.13;;;19.63;52.50
70434;BME280;57876;47.792;12.960;2023-11-21T11:29:14;96370.22;;;19.64;52.08
70434;BME280;57876;47.792;12.960;2023-11-21T11:32:03;96367.91;;;19.66;52.11
70434;BME280;57876;47.792;12.960;2023-11-21T11:34:36;96373.06;;;19.67;52.16
70434;BME280;57876;47.792;12.960;2023-11-21T11:37:05;96372.72;;;19.69;52.22
70434;BME280;57876;47.792;12.960;2023-11-21T11:39:39;96378.66;;;19.71;52.29
70434;BME280;57876;47.792;12.960;2023-11-21T11:42:08;96371.22;;;19.71;52.29
70434;BME280;57876;47.792;12.960;2023-11-21T11:47:17;96368.94;;;19.73;52.12
70434;BME280;57876;47.792;12.960;2023-11-21T11:50:08;96362.28;;;19.74;52.15
70434;BME280;57876;47.792;12.960;2023-11-21T11:52:48;96358.75;;;19.74;52.20
70434;BME280;57876;47.792;12.960;2023-11-21T11:55:19;96364.22;;;19.74;52.33
70434;BME280;57876;47.792;12.960;2023-11-21T11:57:46;96365.03;;;19.74;52.27
70434;BME280;57876;47.792;12.960;2023-11-21T12:00:21;96353.59;;;19.72;52.31
70434;BME280;57876;47.792;12.960;2023-11-21T12:02:51;96361.03;;;19.72;52.44
70434;BME280;57876;47.792;12.960;2023-11-21T12:05:20;96358.28;;;19.72;52.21
70434;BME280;57876;47.792;12.960;2023-11-21T12:07:52;96359.06;;;19.72;52.36
70434;BME280;57876;47.792;12.960;2023-11-21T12:10:19;96360.25;;;19.71;52.53
70434;BME280;57876;47.792;12.960;2023-11-21T12:12:46;96357.84;;;19.70;52.39
70434;BME280;57876;47.792;12.960;2023-11-21T12:15:11;96356.25;;;19.69;52.24
70434;BME280;57876;47.792;12.960;2023-11-21T12:17:35;96349.16;;;19.68;52.09
70434;BME280;57876;47.792;12.960;2023-11-21T12:20:03;96350.78;;;19.69;52.12
70434;BME280;57876;47.792;12.960;2023-11-21T12:22:28;96349.97;;;19.68;52.32
70434;BME280;57876;47.792;12.960;2023-11-21T12:24:53;96352.34;;;19.70;52.20
70434;BME280;57876;47.792;12.960;2023-11-21T12:27:18;96352.34;;;19.70;52.31
70434;BME280;57876;47.792;12.960;2023-11-21T12:29:43;96354.75;;;19.71;52.14
70434;BME280;57876;47.792;12.960;2023-11-21T12:32:07;96347.31;;;19.72;52.12
70434;BME280;57876;47.792;12.960;2023-11-21T12:34:35;96354.38;;;19.73;52.19
70434;BME280;57876;47.792;12.960;2023-11-21T12:36:59;96342.28;;;19.74;52.11
70434;BME280;57876;47.792;12.960;2023-11-21T12:39:24;96343.84;;;19.75;52.06
70434;BME280;57876;47.792;12.960;2023-11-21T12:41:48;96347.06;;;19.77;52.44
70434;BME280;57876;47.792;12.960;2023-11-21T12:44:13;96354.13;;;19.78;52.16
70434;BME280;57876;47.792;12.960;2023-11-21T12:46:42;96351.38;;;19.78;52.17
70434;BME280;57876;47.792;12.960;2023-11-21T12:49:06;96354.13;;;19.78;52.25
70434;BME280;57876;47.792;12.960;2023-11-21T12:51:31;96352.97;;;19.79;52.39